Time;durP1;ratioP1;P1;durP2;ratioP2;P2;SDS_P1;SDS_P2;PMS_P1;PMS_P2;Temp;Humidity;BMP_temperature;BMP_pressure;BME280_temperature;BME280_humidity;BME280_pressure;Samples;Min_cycle;Max_cycle;Signal;HPM_P1;HPM_P2
2023/06/08 00:00:08;;;;;;;3.45;2.70;;;;;;;18.30;62.76;99287.06;336894;28;4491;-76
2023/06/08 00:00:20;;;;;;;5.60;2.88;;;;;;;18.32;62.50;99279.06;335039;28;17891;-77
2023/06/08 00:00:33;;;;;;;5.65;2.80;;;;;;;18.34;62.38;99271.91;338779;28;5056;-77
2023/06/08 00:00:50;;;;;;;4.95;2.75;;;;;;;18.34;62.36;99280.63;337617;28;19833;-77
2023/06/08 00:01:02;;;;;;;4.70;3.00;;;;;;;18.34;62.68;99278.00;337346;28;17781;-77
2023/06/08 00:01:15;;;;;;;3.63;2.95;;;;;;;18.33;62.82;99284.22;338987;28;4571;-76
2023/06/08 00:01:28;;;;;;;2.92;2.60;;;;;;;18.34;62.71;99278.00;339266;28;18749;-77
2023/06/08 00:01:40;;;;;;;3.00;2.70;;;;;;;18.34;62.52;99283.28;336910;28;16097;-77
2023/06/08 00:01:52;;;;;;;3.03;2.72;;;;;;;18.34;62.74;99279.81;337783;28;4656;-77
2023/06/08 00:02:05;;;;;;;3.35;2.75;;;;;;;18.36;62.56;99275.28;335838;28;16349;-77
2023/06/08 00:02:17;;;;;;;3.13;2.65;;;;;;;18.31;62.84;99280.00;338961;28;5343;-77
2023/06/08 00:02:29;;;;;;;3.55;2.78;;;;;;;18.30;62.84;99284.44;336804;28;4897;-77
2023/06/08 00:02:42;;;;;;;4.80;2.80;;;;;;;18.32;62.56;99274.66;340064;28;5068;-77
2023/06/08 00:02:56;;;;;;;4.75;2.63;;;;;;;18.30;62.76;99281.81;336871;28;18904;-77
2023/06/08 00:03:08;;;;;;;2.90;2.65;;;;;;;18.26;62.91;99280.34;340230;28;5226;-77
2023/06/08 00:03:22;;;;;;;4.10;2.80;;;;;;;18.27;62.79;99282.03;336491;28;18110;-77
2023/06/08 00:03:38;;;;;;;5.00;2.90;;;;;;;18.27;62.45;99282.03;337794;28;4741;-77
2023/06/08 00:03:51;;;;;;;4.05;2.80;;;;;;;18.28;62.80;99274.97;338002;28;18032;-77
2023/06/08 00:04:05;;;;;;;3.25;2.78;;;;;;;18.27;62.75;99276.78;341065;28;4606;-76
2023/06/08 00:04:17;;;;;;;3.10;2.80;;;;;;;18.27;63.04;99276.78;337917;28;18753;-77
2023/06/08 00:04:32;;;;;;;3.10;2.80;;;;;;;18.28;63.33;99275.81;337137;28;16219;-77
2023/06/08 00:04:45;;;;;;;2.78;2.58;;;;;;;18.33;62.83;99278.97;337857;28;17358;-77
2023/06/08 00:05:02;;;;;;;2.90;2.58;;;;;;;18.34;62.68;99275.38;340035;28;4486;-77
2023/06/08 00:05:16;;;;;;;3.38;2.70;;;;;;;18.34;62.82;99278.00;337169;28;16814;-77
2023/06/08 00:05:28;;;;;;;3.20;2.60;;;;;;;18.35;62.56;99276.22;340192;28;4573;-77
2023/06/08 00:05:47;;;;;;;2.63;2.40;;;;;;;18.36;62.73;99284.00;338743;28;7782;-76
2023/06/08 00:06:00;;;;;;;2.50;2.30;;;;;;;18.35;62.61;99284.09;340271;28;16690;-77
2023/06/08 00:06:13;;;;;;;3.17;2.40;;;;;;;18.35;62.70;99279.69;339723;28;17917;-77
2023/06/08 00:06:26;;;;;;;3.60;2.50;;;;;;;18.35;62.46;99278.84;340116;28;4535;-77
2023/06/08 00:06:40;;;;;;;3.13;2.50;;;;;;;18.32;62.52;99279.91;341170;28;4490;-77
2023/06/08 00:06:52;;;;;;;2.83;2.47;;;;;;;18.30;62.68;99278.34;337182;28;18952;-77
2023/06/08 00:07:08;;;;;;;3.08;2.63;;;;;;;18.28;62.54;99285.50;337256;28;10812;-77
2023/06/08 00:07:21;;;;;;;3.90;2.70;;;;;;;18.24;62.86;99278.78;338566;28;6148;-77
2023/06/08 00:07:34;;;;;;;3.80;2.60;;;;;;;18.18;63.20;99285.31;341145;28;4570;-77
2023/06/08 00:07:46;;;;;;;3.65;2.50;;;;;;;18.16;63.11;99279.31;336667;28;18139;-77
2023/06/08 00:07:59;;;;;;;2.95;2.45;;;;;;;18.14;63.75;99289.09;339123;28;4923;-77
2023/06/08 00:08:11;;;;;;;3.50;2.70;;;;;;;18.13;63.30;99284.81;335343;28;17796;-77
2023/06/08 00:08:23;;;;;;;4.22;2.80;;;;;;;18.11;63.26;99281.41;338279;28;4587;-77
2023/06/08 00:08:35;;;;;;;4.00;2.70;;;;;;;18.04;63.77;99280.16;335551;28;17995;-77
2023/06/08 00:08:47;;;;;;;3.00;2.70;;;;;;;18.00;64.01;99278.69;339742;28;5471;-77
2023/06/08 00:09:01;;;;;;;3.28;2.97;;;;;;;17.97;63.76;99285.03;337206;28;4528;-77
2023/06/08 00:09:14;;;;;;;3.30;3.00;;;;;;;17.98;63.88;99276.16;335491;28;16230;-77
2023/06/08 00:09:27;;;;;;;2.95;2.67;;;;;;;17.95;63.88;99287.75;335368;28;18028;-77
2023/06/08 00:09:39;;;;;;;2.80;2.60;;;;;;;17.86;64.45;99277.84;337507;28;5401;-77
2023/06/08 00:09:51;;;;;;;2.72;2.53;;;;;;;17.87;64.59;99279.53;337283;28;18401;-77
2023/06/08 00:10:03;;;;;;;4.07;2.72;;;;;;;17.87;64.82;99279.53;339458;28;5759;-77
2023/06/08 00:10:16;;;;;;;4.10;2.50;;;;;;;17.88;65.14;99280.38;336857;28;18315;-77
2023/06/08 00:10:28;;;;;;;4.10;2.60;;;;;;;17.83;65.62;99285.06;340130;28;4641;-77
2023/06/08 00:10:44;;;;;;;3.38;2.72;;;;;;;17.84;65.66;99281.53;336787;28;18229;-77
2023/06/08 00:10:56;;;;;;;4.47;3.00;;;;;;;17.80;65.65;99278.25;336978;28;17991;-77
2023/06/08 00:11:08;;;;;;;4.67;2.90;;;;;;;17.80;65.90;99275.63;339696;28;4884;-77
2023/06/08 00:11:20;;;;;;;3.47;2.80;;;;;;;17.83;65.57;99282.44;336857;28;18229;-77
2023/06/08 00:11:32;;;;;;;3.28;2.63;;;;;;;17.81;65.19;99284.34;339588;28;4641;-77
2023/06/08 00:11:44;;;;;;;3.25;2.83;;;;;;;17.86;65.15;99283.09;337586;28;4551;-77
2023/06/08 00:11:58;;;;;;;3.70;2.90;;;;;;;17.85;65.73;99284.06;338821;28;5001;-77
2023/06/08 00:12:10;;;;;;;3.60;2.88;;;;;;;17.81;65.49;99273.81;336230;28;17692;-77
2023/06/08 00:12:22;;;;;;;4.32;2.97;;;;;;;17.82;65.66;99276.34;338747;28;4506;-77
2023/06/08 00:12:34;;;;;;;4.30;2.90;;;;;;;17.82;65.68;99284.22;338612;28;5316;-77
2023/06/08 00:12:46;;;;;;;4.38;2.80;;;;;;;17.82;65.64;99272.88;336827;28;17994;-77
2023/06/08 00:12:58;;;;;;;3.08;2.72;;;;;;;17.82;65.32;99276.34;340125;28;4820;-77
2023/06/08 00:13:12;;;;;;;3.42;2.88;;;;;;;17.80;65.37;99272.97;337600;28;17676;-77
2023/06/08 00:13:24;;;;;;;3.75;2.90;;;;;;;17.79;65.66;99281.84;341235;28;4719;-77
2023/06/08 00:13:36;;;;;;;4.90;3.10;;;;;;;17.80;65.70;99280.88;337109;28;18552;-77
2023/06/08 00:13:48;;;;;;;4.93;3.20;;;;;;;17.80;65.99;99280.88;341074;28;4648;-77
2023/06/08 00:14:01;;;;;;;3.78;3.03;;;;;;;17.81;65.94;99272.06;338544;28;16523;-77
2023/06/08 00:14:13;;;;;;;3.13;2.80;;;;;;;17.83;66.20;99280.69;340924;28;5609;-77
2023/06/08 00:14:25;;;;;;;3.15;2.80;;;;;;;17.85;65.58;99270.91;339051;28;5701;-77
2023/06/08 00:14:38;;;;;;;3.35;3.05;;;;;;;17.90;65.36;99278.50;341480;28;5602;-77
2023/06/08 00:14:50;;;;;;;3.30;3.00;;;;;;;17.92;65.06;99268.69;338544;28;17008;-77
2023/06/08 00:15:04;;;;;;;3.22;2.92;;;;;;;17.95;65.04;99274.59;340893;28;5358;-76
2023/06/08 00:15:17;;;;;;;2.92;2.72;;;;;;;17.96;64.89;99273.63;338322;28;18083;-77
2023/06/08 00:15:30;;;;;;;2.90;2.60;;;;;;;18.01;64.65;99272.47;340629;28;5385;-77
2023/06/08 00:15:45;;;;;;;3.15;2.70;;;;;;;18.02;64.70;99272.38;337885;28;18082;-77
2023/06/08 00:16:00;;;;;;;3.10;2.70;;;;;;;18.01;64.72;99275.09;338532;28;17753;-77
2023/06/08 00:16:13;;;;;;;3.05;2.55;;;;;;;17.94;64.99;99275.53;338089;28;17508;-77
2023/06/08 00:16:27;;;;;;;2.80;2.50;;;;;;;17.95;65.00;99271.97;338697;28;16447;-77
2023/06/08 00:16:42;;;;;;;3.73;2.70;;;;;;;17.96;64.92;99268.38;336713;28;17538;-77
2023/06/08 00:16:54;;;;;;;3.95;2.80;;;;;;;17.98;64.55;99275.34;339726;28;5715;-76
2023/06/08 00:17:09;;;;;;;3.40;2.90;;;;;;;17.94;64.74;99274.69;337113;28;17990;-77
2023/06/08 00:17:23;;;;;;;4.00;2.97;;;;;;;17.90;64.81;99274.06;337523;28;18024;-77
2023/06/08 00:17:36;;;;;;;3.72;2.72;;;;;;;17.92;65.35;99277.44;338762;28;5277;-77
2023/06/08 00:17:48;;;;;;;3.45;2.78;;;;;;;17.94;65.31;99275.53;341417;28;5262;-77
2023/06/08 00:18:01;;;;;;;3.55;2.65;;;;;;;17.91;65.38;99273.13;337112;28;17785;-77
2023/06/08 00:18:13;;;;;;;3.53;2.63;;;;;;;17.95;65.03;99271.13;339932;28;5840;-77
2023/06/08 00:18:27;;;;;;;3.43;2.70;;;;;;;17.94;64.57;99272.91;337363;28;16574;-76
2023/06/08 00:18:41;;;;;;;2.90;2.70;;;;;;;17.96;64.41;99276.25;339749;28;4579;-77
2023/06/08 00:18:57;;;;;;;3.08;2.72;;;;;;;18.01;64.35;99280.38;338348;28;18123;-77
2023/06/08 00:19:10;;;;;;;3.13;2.83;;;;;;;18.03;64.35;99273.22;338256;28;17742;-77
2023/06/08 00:19:23;;;;;;;2.97;2.70;;;;;;;18.05;64.06;99266.06;335798;28;17912;-77
2023/06/08 00:19:38;;;;;;;3.83;2.70;;;;;;;18.06;64.04;99270.38;336115;28;16304;-76
2023/06/08 00:19:52;;;;;;;4.57;2.75;;;;;;;18.02;64.63;99271.53;337035;28;15731;-77
2023/06/08 00:20:08;;;;;;;3.78;2.80;;;;;;;17.98;64.75;99275.34;340268;28;4485;-76
2023/06/08 00:20:22;;;;;;;3.00;2.70;;;;;;;17.98;64.64;99270.06;337270;28;17673;-77
2023/06/08 00:20:39;;;;;;;3.90;2.80;;;;;;;18.02;64.25;99271.53;339843;28;4473;-77
2023/06/08 00:20:51;;;;;;;4.10;2.95;;;;;;;18.04;64.18;99272.28;337277;28;17583;-77
2023/06/08 00:21:03;;;;;;;3.25;2.95;;;;;;;18.06;64.07;99270.38;340025;28;4549;-77
2023/06/08 00:21:16;;;;;;;3.10;2.80;;;;;;;18.08;63.73;99271.13;337076;28;19311;-77
2023/06/08 00:21:29;;;;;;;3.10;2.80;;;;;;;18.05;63.74;99273.94;339811;28;5314;-77
2023/06/08 00:21:42;;;;;;;3.13;2.83;;;;;;;18.08;63.47;99271.13;337579;28;18130;-77
2023/06/08 00:21:56;;;;;;;3.22;2.83;;;;;;;18.08;63.34;99265.84;341050;28;9110;-77
2023/06/08 00:22:12;;;;;;;3.10;2.70;;;;;;;18.09;63.52;99272.78;338271;28;17807;-77
2023/06/08 00:22:24;;;;;;;3.40;2.78;;;;;;;18.10;63.21;99266.59;336697;28;17250;-77
2023/06/08 00:22:36;;;;;;;3.53;2.92;;;;;;;18.10;63.20;99269.22;336833;28;18136;-77
2023/06/08 00:22:50;;;;;;;3.28;2.95;;;;;;;18.11;63.13;99271.75;341148;28;4652;-77
2023/06/08 00:23:04;;;;;;;3.47;2.90;;;;;;;18.11;63.18;99271.75;338585;28;18046;-77
2023/06/08 00:23:16;;;;;;;3.35;2.90;;;;;;;18.11;63.44;99266.47;337071;28;18681;-77
2023/06/08 00:23:29;;;;;;;3.30;3.00;;;;;;;18.13;63.13;99266.38;341339;28;5530;-77
2023/06/08 00:23:41;;;;;;;3.22;2.92;;;;;;;18.14;63.19;99266.25;337983;28;19187;-77
2023/06/08 00:23:53;;;;;;;3.10;2.80;;;;;;;18.14;63.00;99268.06;341266;28;4595;-77
2023/06/08 00:24:05;;;;;;;3.00;2.70;;;;;;;18.13;63.09;99274.28;337172;28;9594;-77
2023/06/08 00:24:20;;;;;;;3.00;2.70;;;;;;;18.13;63.38;99269.84;339749;28;4587;-77
2023/06/08 00:24:35;;;;;;;2.95;2.53;;;;;;;18.14;63.31;99271.50;336125;28;17728;-77
2023/06/08 00:24:47;;;;;;;3.33;2.60;;;;;;;18.11;63.41;99266.47;338031;28;16330;-77
2023/06/08 00:24:59;;;;;;;4.82;2.75;;;;;;;18.09;63.87;99268.38;340436;28;4553;-77
2023/06/08 00:25:11;;;;;;;4.28;2.80;;;;;;;18.09;64.26;99273.66;338218;28;18474;-77
2023/06/08 00:25:23;;;;;;;3.72;2.78;;;;;;;18.07;64.21;99267.66;341229;28;4534;-77
2023/06/08 00:25:35;;;;;;;2.97;2.67;;;;;;;18.09;63.99;99265.75;337956;28;19211;-77
2023/06/08 00:25:47;;;;;;;2.90;2.60;;;;;;;18.09;63.71;99267.50;341372;28;4554;-77
2023/06/08 00:26:00;;;;;;;3.50;2.80;;;;;;;18.05;64.11;99268.69;341284;28;5110;-77
2023/06/08 00:26:12;;;;;;;3.22;2.75;;;;;;;18.06;64.21;99267.75;338445;28;19341;-77
2023/06/08 00:26:25;;;;;;;2.85;2.65;;;;;;;18.03;64.01;99270.56;341549;28;4526;-77
2023/06/08 00:26:39;;;;;;;2.83;2.63;;;;;;;18.02;64.03;99263.66;338415;28;17940;-77
2023/06/08 00:26:52;;;;;;;3.00;2.70;;;;;;;17.99;64.37;99266.47;337053;28;18893;-77
2023/06/08 00:27:05;;;;;;;3.10;2.80;;;;;;;18.03;64.20;99273.22;340107;28;4583;-77
2023/06/08 00:27:17;;;;;;;4.55;2.78;;;;;;;18.06;63.98;99262.50;337325;28;17892;-77
2023/06/08 00:27:29;;;;;;;4.47;2.80;;;;;;;18.02;64.21;99266.28;340938;28;4574;-77
2023/06/08 00:27:41;;;;;;;4.55;2.88;;;;;;;18.03;64.27;99265.31;338398;28;16613;-77
2023/06/08 00:27:53;;;;;;;3.40;3.10;;;;;;;18.05;64.03;99271.31;339469;28;5296;-77
2023/06/08 00:28:05;;;;;;;3.50;3.20;;;;;;;18.04;63.90;99265.22;337068;28;18396;-77
2023/06/08 00:28:18;;;;;;;3.45;3.08;;;;;;;18.05;63.95;99260.78;339692;28;4522;-77
2023/06/08 00:28:31;;;;;;;3.85;2.88;;;;;;;18.07;63.59;99270.28;338738;28;17690;-77
2023/06/08 00:28:46;;;;;;;3.70;2.70;;;;;;;18.06;63.74;99273.00;341719;28;4699;-77
2023/06/08 00:28:58;;;;;;;3.08;2.65;;;;;;;18.07;63.68;99269.41;338748;28;19257;-77
2023/06/08 00:29:10;;;;;;;3.20;2.80;;;;;;;18.07;63.62;99265.03;338262;28;10241;-77
2023/06/08 00:29:22;;;;;;;3.92;2.83;;;;;;;18.08;63.35;99265.84;341594;28;4569;-77
2023/06/08 00:29:34;;;;;;;3.63;2.72;;;;;;;18.07;63.91;99269.41;341291;28;5488;-77
2023/06/08 00:29:46;;;;;;;3.38;2.67;;;;;;;18.04;64.26;99264.38;337281;28;9497;-77
2023/06/08 00:29:58;;;;;;;2.88;2.55;;;;;;;18.07;63.91;99269.41;339959;28;4671;-77
2023/06/08 00:30:13;;;;;;;4.68;2.60;;;;;;;18.10;63.57;99269.22;336342;28;7988;-77
2023/06/08 00:30:26;;;;;;;5.95;2.40;;;;;;;18.11;63.42;99265.63;335895;28;18232;-77
2023/06/08 00:30:38;;;;;;;4.78;2.60;;;;;;;18.04;64.15;99259.97;338895;28;4548;-77
2023/06/08 00:30:50;;;;;;;3.53;2.70;;;;;;;18.03;63.78;99274.06;336697;28;10703;-77
2023/06/08 00:31:02;;;;;;;3.53;2.63;;;;;;;18.01;64.03;99267.22;339754;28;4521;-77
2023/06/08 00:31:15;;;;;;;3.15;2.67;;;;;;;18.03;63.78;99267.94;339403;28;5212;-77
2023/06/08 00:31:27;;;;;;;2.80;2.53;;;;;;;18.05;63.77;99266.06;336138;28;17975;-77
2023/06/08 00:31:39;;;;;;;3.00;2.70;;;;;;;18.05;63.73;99266.06;338734;28;4537;-77
2023/06/08 00:31:52;;;;;;;3.15;2.80;;;;;;;18.04;63.49;99265.22;334256;28;19188;-77
2023/06/08 00:32:04;;;;;;;3.00;2.70;;;;;;;18.04;63.90;99269.66;337682;28;4691;-77
2023/06/08 00:32:16;;;;;;;3.10;2.80;;;;;;;18.05;63.58;99266.06;335468;28;18145;-77
2023/06/08 00:32:28;;;;;;;3.15;2.80;;;;;;;17.99;64.80;99266.47;338453;28;4475;-77
2023/06/08 00:32:40;;;;;;;3.35;2.80;;;;;;;17.91;64.80;99262.59;335851;28;16557;-77
2023/06/08 00:32:52;;;;;;;3.47;2.85;;;;;;;17.89;64.33;99267.13;338687;28;4499;-77
2023/06/08 00:33:04;;;;;;;3.30;3.00;;;;;;;17.85;64.29;99263.03;338874;28;4565;-77
2023/06/08 00:33:16;;;;;;;3.58;3.10;;;;;;;17.80;64.90;99262.47;336916;28;18043;-77
2023/06/08 00:33:28;;;;;;;3.50;3.08;;;;;;;17.80;64.61;99265.09;339834;28;4936;-77
2023/06/08 00:33:41;;;;;;;3.53;2.95;;;;;;;17.79;64.59;99260.81;337338;28;18128;-77
2023/06/08 00:33:53;;;;;;;3.35;2.92;;;;;;;17.78;64.39;99269.63;341209;28;5132;-76
2023/06/08 00:34:05;;;;;;;3.08;2.78;;;;;;;17.77;64.52;99267.94;338811;28;5180;-77
2023/06/08 00:34:17;;;;;;;2.95;2.75;;;;;;;17.73;64.58;99271.75;340578;28;4724;-77
2023/06/08 00:34:29;;;;;;;3.03;2.80;;;;;;;17.71;64.69;99268.38;341591;28;4503;-77
2023/06/08 00:34:41;;;;;;;3.78;2.67;;;;;;;17.70;64.75;99266.69;338389;28;19302;-77
2023/06/08 00:34:56;;;;;;;5.10;2.90;;;;;;;17.72;64.67;99259.53;338310;28;17926;-77
2023/06/08 00:35:09;;;;;;;5.10;2.95;;;;;;;17.72;64.47;99264.78;341507;28;4516;-77
2023/06/08 00:35:21;;;;;;;3.65;2.92;;;;;;;17.71;64.61;99273.63;338331;28;17918;-77
2023/06/08 00:35:33;;;;;;;3.10;2.80;;;;;;;17.73;64.68;99261.22;341199;28;5296;-77
2023/06/08 00:35:45;;;;;;;3.20;2.90;;;;;;;17.75;64.21;99261.97;340521;28;5301;-77
2023/06/08 00:35:58;;;;;;;3.20;2.90;;;;;;;17.74;64.27;99263.72;337351;28;16570;-77
2023/06/08 00:36:12;;;;;;;3.33;3.03;;;;;;;17.71;64.85;99265.75;337111;28;5399;-77
2023/06/08 00:36:24;;;;;;;3.00;2.80;;;;;;;17.69;65.16;99267.63;340152;28;4762;-77
2023/06/08 00:36:37;;;;;;;3.30;3.00;;;;;;;17.64;65.03;99270.56;337286;28;9081;-77
2023/06/08 00:36:49;;;;;;;3.60;3.05;;;;;;;17.67;65.07;99266.91;340034;28;4513;-77
2023/06/08 00:37:01;;;;;;;5.22;2.97;;;;;;;17.71;64.95;99268.38;337322;28;18367;-77
2023/06/08 00:37:13;;;;;;;5.18;2.90;;;;;;;17.72;64.83;99265.63;339851;28;5069;-77
2023/06/08 00:37:25;;;;;;;4.78;2.90;;;;;;;17.74;64.90;99262.88;337214;28;8375;-77
2023/06/08 00:37:37;;;;;;;3.65;2.90;;;;;;;17.75;64.64;99265.41;340192;28;4622;-77
2023/06/08 00:37:49;;;;;;;3.15;2.80;;;;;;;17.74;64.67;99270.78;340046;28;4463;-77
2023/06/08 00:38:01;;;;;;;3.25;2.80;;;;;;;17.74;64.68;99268.16;336966;28;18169;-77
2023/06/08 00:38:13;;;;;;;4.18;2.78;;;;;;;17.77;64.56;99273.22;340202;28;4554;-77
2023/06/08 00:38:25;;;;;;;4.88;3.10;;;;;;;17.78;64.50;99264.34;338114;28;16628;-77
2023/06/08 00:38:37;;;;;;;4.53;2.97;;;;;;;17.81;64.11;99261.53;341382;28;5311;-77
2023/06/08 00:38:49;;;;;;;3.80;2.83;;;;;;;17.83;64.07;99267.56;341227;28;4651;-77
2023/06/08 00:39:01;;;;;;;3.22;2.90;;;;;;;17.85;64.06;99264.81;337905;28;18239;-77
2023/06/08 00:39:13;;;;;;;3.47;2.97;;;;;;;17.84;64.14;99266.59;341207;28;4942;-77
2023/06/08 00:39:25;;;;;;;3.67;2.70;;;;;;;17.83;64.08;99266.66;338596;28;17426;-77
2023/06/08 00:39:37;;;;;;;3.97;2.85;;;;;;;17.81;64.46;99266.78;341365;28;4716;-77
2023/06/08 00:39:49;;;;;;;3.63;2.85;;;;;;;17.85;64.38;99265.66;340158;28;5364;-77
2023/06/08 00:40:04;;;;;;;3.03;2.75;;;;;;;17.87;64.43;99260.31;337584;28;18489;-77
2023/06/08 00:40:16;;;;;;;3.17;2.88;;;;;;;17.87;64.24;99263.78;337092;28;18056;-77
2023/06/08 00:40:29;;;;;;;3.20;2.90;;;;;;;17.89;64.39;99267.13;338511;28;4486;-77
2023/06/08 00:40:42;;;;;;;3.30;3.00;;;;;;;17.88;64.18;99265.44;335714;28;16633;-77
2023/06/08 00:40:54;;;;;;;4.28;3.00;;;;;;;17.82;64.74;99265.00;339401;28;4688;-77
2023/06/08 00:41:07;;;;;;;4.47;3.08;;;;;;;17.79;65.00;99266.06;337008;28;18010;-76
2023/06/08 00:41:19;;;;;;;4.22;3.00;;;;;;;17.80;64.76;99267.72;339637;28;4515;-77
2023/06/08 00:41:31;;;;;;;3.60;2.92;;;;;;;17.82;64.56;99257.94;337055;28;16014;-77
2023/06/08 00:41:43;;;;;;;3.40;2.80;;;;;;;17.84;64.27;99263.97;339609;28;4601;-77
2023/06/08 00:41:55;;;;;;;3.22;2.80;;;;;;;17.87;64.46;99265.56;338754;28;4525;-77
2023/06/08 00:42:07;;;;;;;3.13;2.83;;;;;;;17.83;64.71;99267.56;335882;28;17983;-77
2023/06/08 00:42:19;;;;;;;3.13;2.80;;;;;;;17.81;65.32;99264.16;339252;28;5381;-77
2023/06/08 00:42:31;;;;;;;3.03;2.75;;;;;;;17.81;65.30;99264.16;337057;28;18814;-77
2023/06/08 00:42:43;;;;;;;3.10;2.85;;;;;;;17.81;64.92;99263.31;340156;28;4612;-77
2023/06/08 00:42:55;;;;;;;3.40;3.10;;;;;;;17.83;64.58;99271.91;339389;28;4651;-77
2023/06/08 00:43:07;;;;;;;3.40;3.10;;;;;;;17.84;64.42;99263.97;341746;28;4485;-77
2023/06/08 00:43:19;;;;;;;3.08;2.88;;;;;;;17.84;64.92;99263.13;341098;28;4625;-77
2023/06/08 00:43:31;;;;;;;2.90;2.70;;;;;;;17.75;65.03;99264.59;337229;28;18065;-77
2023/06/08 00:43:45;;;;;;;2.90;2.70;;;;;;;17.73;65.37;99271.75;340582;28;4519;-77
2023/06/08 00:43:57;;;;;;;3.22;2.92;;;;;;;17.75;65.24;99275.09;338403;28;17841;-77
2023/06/08 00:44:09;;;;;;;4.30;3.00;;;;;;;17.70;65.63;99271.94;341262;28;4762;-77
2023/06/08 00:44:21;;;;;;;4.68;2.90;;;;;;;17.70;65.30;99277.19;338749;28;17983;-77
2023/06/08 00:44:33;;;;;;;4.30;2.80;;;;;;;17.68;65.55;99268.56;339803;28;5246;-76
2023/06/08 00:44:45;;;;;;;3.42;2.83;;;;;;;17.68;65.57;99271.19;338495;28;5039;-77
2023/06/08 00:44:57;;;;;;;3.10;2.80;;;;;;;17.64;65.76;99267.94;341662;28;5574;-77
2023/06/08 00:45:10;;;;;;;3.10;2.80;;;;;;;17.66;65.69;99271.28;341705;28;5154;-77
2023/06/08 00:45:22;;;;;;;2.85;2.53;;;;;;;17.63;66.14;99270.69;338177;28;17924;-77
2023/06/08 00:45:34;;;;;;;2.80;2.50;;;;;;;17.65;65.70;99271.41;338380;28;5413;-77
2023/06/08 00:45:46;;;;;;;2.72;2.50;;;;;;;17.64;65.79;99272.34;336346;28;18277;-77
2023/06/08 00:45:58;;;;;;;3.45;2.78;;;;;;;17.68;65.88;99268.56;339749;28;4526;-77
2023/06/08 00:46:12;;;;;;;5.18;2.90;;;;;;;17.69;66.17;99272.88;337029;28;18009;-77
2023/06/08 00:46:30;;;;;;;4.32;2.88;;;;;;;17.72;65.68;99275.28;339536;28;4483;-77
2023/06/08 00:46:42;;;;;;;2.83;2.60;;;;;;;17.74;65.38;99265.50;336814;28;17691;-77
2023/06/08 00:46:54;;;;;;;2.90;2.63;;;;;;;17.75;65.58;99275.09;340040;28;4914;-77
2023/06/08 00:47:08;;;;;;;3.08;2.78;;;;;;;17.74;65.88;99270.78;336659;28;19782;-76
2023/06/08 00:47:20;;;;;;;3.20;2.90;;;;;;;17.74;65.41;99268.16;338815;28;4513;-77
2023/06/08 00:47:32;;;;;;;3.88;2.70;;;;;;;17.74;65.56;99274.25;338589;28;17478;-77
2023/06/08 00:47:46;;;;;;;4.15;2.60;;;;;;;17.76;65.34;99271.50;339767;28;4491;-77
2023/06/08 00:47:58;;;;;;;2.90;2.60;;;;;;;17.76;65.35;99266.25;336813;28;18170;-77
2023/06/08 00:48:15;;;;;;;3.20;2.80;;;;;;;17.74;65.46;99273.41;336048;28;7356;-77
2023/06/08 00:48:27;;;;;;;2.97;2.67;;;;;;;17.75;65.32;99264.59;336727;28;17717;-77
2023/06/08 00:48:40;;;;;;;2.90;2.60;;;;;;;17.76;65.06;99271.50;339550;28;4960;-77
2023/06/08 00:48:52;;;;;;;2.88;2.60;;;;;;;17.75;63.81;99267.22;338679;28;18337;-77
2023/06/08 00:49:08;;;;;;;3.00;2.70;;;;;;;17.75;63.80;99270.69;341149;28;5311;-77
2023/06/08 00:49:20;;;;;;;3.03;2.72;;;;;;;17.77;64.04;99258.28;340761;28;16557;-77
2023/06/08 00:49:32;;;;;;;3.08;2.78;;;;;;;17.77;63.98;99262.69;338223;28;18129;-77
2023/06/08 00:49:45;;;;;;;3.00;2.70;;;;;;;17.80;63.76;99256.38;341248;28;4662;-77
2023/06/08 00:49:57;;;;;;;3.22;2.75;;;;;;;17.75;64.10;99264.59;338233;28;18670;-77
2023/06/08 00:50:09;;;;;;;3.78;2.83;;;;;;;17.75;64.10;99261.97;340180;28;4497;-77
2023/06/08 00:50:23;;;;;;;3.92;2.95;;;;;;;17.76;63.80;99271.50;337197;28;17772;-77
2023/06/08 00:50:35;;;;;;;4.13;2.90;;;;;;;17.80;63.63;99267.72;340273;28;4666;-77
2023/06/08 00:50:48;;;;;;;4.25;2.95;;;;;;;17.78;63.55;99259.09;338388;28;18094;-77
2023/06/08 00:51:01;;;;;;;3.55;2.92;;;;;;;17.77;63.36;99260.91;341250;28;4469;-77
2023/06/08 00:51:13;;;;;;;3.22;2.78;;;;;;;17.74;63.59;99268.97;337726;28;18098;-77
2023/06/08 00:51:33;;;;;;;3.17;2.60;;;;;;;17.75;63.54;99264.59;339262;28;5077;-77
2023/06/08 00:51:46;;;;;;;3.10;2.80;;;;;;;17.77;63.80;99270.59;337592;28;17620;-76
2023/06/08 00:52:01;;;;;;;3.20;2.90;;;;;;;17.77;63.53;99273.22;336867;28;18179;-77
2023/06/08 00:52:14;;;;;;;3.60;2.88;;;;;;;17.79;62.97;99260.81;339715;28;4542;-77
2023/06/08 00:52:26;;;;;;;3.63;2.90;;;;;;;17.79;63.64;99266.06;337456;28;5059;-77
2023/06/08 00:52:39;;;;;;;3.78;2.95;;;;;;;17.78;63.25;99261.72;339501;28;5328;-77
2023/06/08 00:52:52;;;;;;;3.63;2.92;;;;;;;17.80;63.25;99267.72;336617;28;17834;-77
2023/06/08 00:53:04;;;;;;;4.93;2.80;;;;;;;17.79;63.19;99266.06;340403;28;5156;-77
2023/06/08 00:53:16;;;;;;;4.78;2.72;;;;;;;17.76;63.70;99271.50;337404;28;9117;-77
2023/06/08 00:53:29;;;;;;;3.08;2.80;;;;;;;17.74;63.85;99271.59;339626;28;4496;-77
2023/06/08 00:53:41;;;;;;;3.53;2.80;;;;;;;17.77;63.29;99262.69;336521;28;15983;-77
2023/06/08 00:53:53;;;;;;;3.42;2.80;;;;;;;17.78;63.07;99264.34;341147;28;4537;-77
2023/06/08 00:54:05;;;;;;;3.10;2.67;;;;;;;17.79;62.95;99263.44;340662;28;4478;-77
2023/06/08 00:54:17;;;;;;;3.15;2.60;;;;;;;17.82;62.49;99276.34;338423;28;17643;-77
2023/06/08 00:54:30;;;;;;;3.40;2.50;;;;;;;17.83;62.53;99271.91;339732;28;5472;-77
2023/06/08 00:54:43;;;;;;;3.65;2.70;;;;;;;17.82;62.78;99268.47;335560;28;18281;-77
2023/06/08 00:54:56;;;;;;;3.95;2.70;;;;;;;17.81;62.87;99268.56;338364;28;5119;-77
2023/06/08 00:55:08;;;;;;;3.97;2.72;;;;;;;17.80;62.23;99267.72;335453;28;18363;-77
2023/06/08 00:55:21;;;;;;;3.75;2.70;;;;;;;17.73;62.76;99267.31;337806;28;4818;-77
2023/06/08 00:55:33;;;;;;;3.20;2.65;;;;;;;17.78;62.83;99269.63;335772;28;18141;-77
2023/06/08 00:55:50;;;;;;;3.97;2.70;;;;;;;17.76;63.14;99271.50;338624;28;8754;-77
2023/06/08 00:56:03;;;;;;;3.35;2.47;;;;;;;17.72;63.46;99270.88;337585;28;17988;-77
2023/06/08 00:56:16;;;;;;;3.80;2.35;;;;;;;17.76;62.55;99267.09;340919;28;5043;-77
2023/06/08 00:56:31;;;;;;;4.38;2.53;;;;;;;17.74;63.16;99270.78;336783;28;16386;-77
2023/06/08 00:56:48;;;;;;;4.38;2.80;;;;;;;17.72;63.08;99270.88;336901;28;18126;-77
2023/06/08 00:57:03;;;;;;;2.97;2.67;;;;;;;17.71;63.25;99268.38;338005;28;19221;-77
2023/06/08 00:57:18;;;;;;;2.88;2.67;;;;;;;17.65;63.53;99266.16;340729;28;7406;-76
2023/06/08 00:57:32;;;;;;;3.03;2.80;;;;;;;17.64;63.64;99267.09;337549;28;17010;-77
2023/06/08 00:57:47;;;;;;;3.10;2.80;;;;;;;17.62;63.61;99264.56;336069;28;19150;-77
2023/06/08 00:58:01;;;;;;;2.90;2.60;;;;;;;17.63;63.67;99270.69;336110;28;18758;-77
2023/06/08 00:58:13;;;;;;;2.70;2.50;;;;;;;17.64;63.17;99272.34;335451;28;18003;-77
2023/06/08 00:58:26;;;;;;;2.78;2.58;;;;;;;17.64;62.69;99267.09;338469;28;5391;-77
2023/06/08 00:58:38;;;;;;;2.88;2.63;;;;;;;17.60;63.08;99265.63;335617;28;18200;-77
2023/06/08 00:58:52;;;;;;;3.13;2.70;;;;;;;17.62;62.65;99258.47;338551;28;5175;-77
2023/06/08 00:59:05;;;;;;;3.05;2.70;;;;;;;17.64;62.71;99264.47;335840;28;17993;-77
2023/06/08 00:59:17;;;;;;;2.70;2.50;;;;;;;17.65;62.56;99268.78;335992;28;18030;-77
2023/06/08 00:59:31;;;;;;;2.75;2.50;;;;;;;17.64;62.21;99267.09;339931;28;5248;-77
2023/06/08 00:59:49;;;;;;;2.90;2.60;;;;;;;17.65;62.23;99268.78;337738;28;18890;-77
2023/06/08 01:00:08;;;;;;;3.65;2.67;;;;;;;17.67;62.17;99266.91;338436;28;17528;-77
2023/06/08 01:00:22;;;;;;;3.20;2.70;;;;;;;17.69;62.19;99265.00;340868;28;17813;-77
2023/06/08 01:00:34;;;;;;;2.92;2.63;;;;;;;17.68;62.11;99268.56;338419;28;18111;-77
2023/06/08 01:00:46;;;;;;;3.42;2.78;;;;;;;17.70;62.03;99269.31;337221;28;18073;-77
2023/06/08 01:00:59;;;;;;;3.83;2.90;;;;;;;17.70;61.74;99275.38;339994;28;5332;-77
2023/06/08 01:01:17;;;;;;;4.20;3.10;;;;;;;17.70;61.69;99271.94;335480;28;19027;-77
2023/06/08 01:01:35;;;;;;;4.90;2.92;;;;;;;17.69;61.62;99270.25;337333;28;15999;-76
2023/06/08 01:01:50;;;;;;;4.60;2.67;;;;;;;17.63;61.90;99263.63;337991;28;17818;-77
2023/06/08 01:02:04;;;;;;;3.30;2.70;;;;;;;17.64;61.99;99267.94;338453;28;18255;-77
2023/06/08 01:02:17;;;;;;;3.08;2.78;;;;;;;17.64;62.08;99267.09;338339;28;9895;-77